createdAt,value
2018-03-22T00:01:25.457Z,21.23
2018-03-22T00:03:53.055Z,19.17
2018-03-22T00:06:20.621Z,20.10
2018-03-22T00:08:48.187Z,20.83
2018-03-22T00:11:15.768Z,24.83
2018-03-22T00:13:43.336Z,21.13
2018-03-22T00:16:11.687Z,24.20
2018-03-22T00:18:39.261Z,20.57
2018-03-22T00:21:06.991Z,18.30
2018-03-22T00:23:34.545Z,21.33
2018-03-22T00:26:02.115Z,19.80
2018-03-22T00:28:29.669Z,19.87
2018-03-22T00:30:57.252Z,22.23
2018-03-22T00:33:24.821Z,21.73
2018-03-22T00:35:52.388Z,22.30
2018-03-22T00:38:20.760Z,19.13
2018-03-22T00:40:48.343Z,22.53
2018-03-22T00:43:16.681Z,23.07
2018-03-22T00:45:44.245Z,21.07
2018-03-22T00:48:11.818Z,20.70
2018-03-22T00:50:39.484Z,22.23
2018-03-22T00:53:07.129Z,22.37
2018-03-22T00:55:34.704Z,19.93
2018-03-22T00:58:02.370Z,23.80
2018-03-22T01:00:29.939Z,20.47
2018-03-22T01:02:57.522Z,24.73
2018-03-22T01:05:25.946Z,23.07
2018-03-22T01:07:53.486Z,22.70
2018-03-22T01:10:21.067Z,26.07
2018-03-22T01:12:48.613Z,24.07
2018-03-22T01:15:16.160Z,19.50
2018-03-22T01:17:44.500Z,24.80
2018-03-22T01:20:12.066Z,23.27
2018-03-22T01:22:39.687Z,22.40
2018-03-22T01:25:07.375Z,24.33
2018-03-22T01:27:34.929Z,23.83
2018-03-22T01:30:03.567Z,23.57
2018-03-22T01:32:31.908Z,26.77
2018-03-22T01:34:59.456Z,24.27
2018-03-22T01:37:27.027Z,25.27
2018-03-22T01:39:54.678Z,24.13
2018-03-22T01:42:22.242Z,23.67
2018-03-22T01:44:49.815Z,23.30
2018-03-22T01:47:17.397Z,24.63
2018-03-22T01:49:44.943Z,21.10
2018-03-22T01:52:12.896Z,24.13
2018-03-22T01:54:40.465Z,20.97
2018-03-22T01:57:08.023Z,24.10
2018-03-22T01:59:35.570Z,22.90
2018-03-22T02:02:03.168Z,22.60
2018-03-22T02:04:31.500Z,22.40
2018-03-22T02:06:59.044Z,21.13
2018-03-22T02:09:26.716Z,23.40
2018-03-22T02:11:54.272Z,24.57
2018-03-22T02:14:21.898Z,24.70
2018-03-22T02:16:49.466Z,25.80
2018-03-22T02:19:17.785Z,26.33
2018-03-22T02:21:45.321Z,21.30
2018-03-22T02:24:13.749Z,25.77
2018-03-22T02:26:41.322Z,26.07
2018-03-22T02:29:08.874Z,25.60
2018-03-22T02:31:36.472Z,28.03
2018-03-22T02:34:04.091Z,24.23
2018-03-22T02:36:31.657Z,24.37
2018-03-22T02:38:59.263Z,25.87
2018-03-22T02:41:27.780Z,26.43
2018-03-22T02:43:55.338Z,24.07
2018-03-22T02:46:22.921Z,24.50
2018-03-22T02:48:50.465Z,25.27
2018-03-22T02:51:18.053Z,23.80
2018-03-22T02:53:45.726Z,23.83
2018-03-22T02:56:14.788Z,25.80
2018-03-22T02:58:42.349Z,27.87
2018-03-22T03:01:09.924Z,23.77
2018-03-22T03:03:37.483Z,24.70
2018-03-22T03:06:05.033Z,24.13
2018-03-22T03:08:32.610Z,26.97
2018-03-22T03:11:00.276Z,28.17
2018-03-22T03:13:27.844Z,25.17
2018-03-22T03:15:55.418Z,25.27
2018-03-22T03:18:22.974Z,27.23
2018-03-22T03:20:50.514Z,30.33
2018-03-22T03:23:18.092Z,26.10
2018-03-22T03:25:45.629Z,26.77
2018-03-22T03:28:13.187Z,26.60
2018-03-22T03:30:40.757Z,27.97
2018-03-22T03:33:08.404Z,24.33
2018-03-22T03:35:35.978Z,25.30
2018-03-22T03:38:03.543Z,21.43
2018-03-22T03:40:31.116Z,27.97
2018-03-22T03:42:58.660Z,28.67
2018-03-22T03:45:26.239Z,21.83
2018-03-22T03:47:53.895Z,20.70
2018-03-22T03:50:21.561Z,24.10
2018-03-22T03:52:49.123Z,31.93
2018-03-22T03:55:16.679Z,26.73
2018-03-22T03:57:44.229Z,24.13
2018-03-22T04:00:11.914Z,25.97
2018-03-22T04:02:39.571Z,25.23
2018-03-22T04:05:07.226Z,24.90
2018-03-22T04:07:34.796Z,26.77
2018-03-22T04:10:02.350Z,23.37
2018-03-22T04:12:29.902Z,24.23
2018-03-22T04:14:57.476Z,20.57
2018-03-22T04:17:25.132Z,23.40
2018-03-22T04:19:52.782Z,25.57
2018-03-22T04:22:20.342Z,24.67
2018-03-22T04:24:47.884Z,22.97
2018-03-22T04:27:15.442Z,20.87
2018-03-22T04:29:43.018Z,24.27
2018-03-22T04:32:10.580Z,23.10
2018-03-22T04:34:38.138Z,25.77
2018-03-22T04:37:05.691Z,22.87
2018-03-22T04:39:33.279Z,28.63
2018-03-22T04:42:00.841Z,23.60
2018-03-22T04:44:28.423Z,20.70
2018-03-22T04:46:55.967Z,22.00
2018-03-22T04:49:23.524Z,26.40
2018-03-22T04:51:51.181Z,23.83
2018-03-22T04:54:18.730Z,23.67
2018-03-22T04:56:46.299Z,24.27
2018-03-22T04:59:14.021Z,27.43
2018-03-22T05:01:41.568Z,25.27
2018-03-22T05:04:09.887Z,27.10
2018-03-22T05:06:37.463Z,26.20
2018-03-22T05:09:05.036Z,24.60
2018-03-22T05:11:32.586Z,25.23
2018-03-22T05:14:00.238Z,30.27
2018-03-22T05:16:27.817Z,28.70
2018-03-22T05:18:55.363Z,24.50
2018-03-22T05:21:23.050Z,32.27
2018-03-22T05:23:51.428Z,30.53
2018-03-22T05:26:19.090Z,31.57
2018-03-22T05:28:46.647Z,29.93
2018-03-22T05:31:14.213Z,35.43
2018-03-22T05:33:41.860Z,34.63
2018-03-22T05:36:09.449Z,33.27
2018-03-22T05:38:37.032Z,36.73
2018-03-22T05:41:05.346Z,29.17
2018-03-22T05:43:32.929Z,37.03
2018-03-22T05:46:00.477Z,31.57
2018-03-22T05:48:28.017Z,36.20
2018-03-22T05:50:55.602Z,36.33
2018-03-22T05:53:23.180Z,34.87
2018-03-22T05:55:50.722Z,37.63
2018-03-22T05:58:18.284Z,42.10
2018-03-22T06:00:45.841Z,35.00
2018-03-22T06:03:13.393Z,38.27
2018-03-22T06:05:41.006Z,39.47
2018-03-22T06:08:08.637Z,33.70
2018-03-22T06:10:36.203Z,36.87
2018-03-22T06:13:03.782Z,35.50
2018-03-22T06:15:31.335Z,35.73
2018-03-22T06:17:58.878Z,41.97
2018-03-22T06:20:26.455Z,37.43
2018-03-22T06:22:54.006Z,34.87
2018-03-22T06:25:21.591Z,36.60
2018-03-22T06:27:49.167Z,34.57
2018-03-22T06:30:16.724Z,40.87
2018-03-22T06:32:44.367Z,34.53
2018-03-22T06:35:11.967Z,33.63
2018-03-22T06:37:40.300Z,36.10
2018-03-22T06:40:07.973Z,37.80
2018-03-22T06:42:35.559Z,38.67
2018-03-22T06:45:03.981Z,39.90
2018-03-22T06:47:31.554Z,43.73
2018-03-22T06:49:59.116Z,48.67
2018-03-22T06:52:26.680Z,50.63
2018-03-22T06:54:54.222Z,48.27
2018-03-22T06:57:21.799Z,47.13
2018-03-22T06:59:49.362Z,50.37
2018-03-22T07:02:17.025Z,52.23
2018-03-22T07:04:44.712Z,46.43
2018-03-22T07:07:12.258Z,53.43
2018-03-22T07:09:39.809Z,54.07
2018-03-22T07:12:07.479Z,47.60
2018-03-22T07:14:35.166Z,52.77
2018-03-22T07:17:02.680Z,52.30
2018-03-22T07:19:30.367Z,50.27
2018-03-22T07:21:57.923Z,56.07
2018-03-22T07:24:25.586Z,57.70
2018-03-22T07:26:53.155Z,55.27
2018-03-22T07:29:20.733Z,54.70
2018-03-22T07:31:48.298Z,61.97
2018-03-22T07:34:15.943Z,58.13
2018-03-22T07:36:43.489Z,55.67
2018-03-22T07:39:40.229Z,46.87
2018-03-22T07:42:08.736Z,53.47
2018-03-22T07:44:41.263Z,51.43
2018-03-22T07:47:08.820Z,44.23
2018-03-22T07:49:36.442Z,48.60
2018-03-22T07:52:04.013Z,51.00
2018-03-22T07:54:32.323Z,45.80
2018-03-22T07:56:59.885Z,48.27
2018-03-22T07:59:27.449Z,47.83
2018-03-22T08:01:55.121Z,48.73
2018-03-22T08:04:22.714Z,44.37
2018-03-22T08:06:50.372Z,40.33
2018-03-22T08:09:17.921Z,41.33
2018-03-22T08:11:45.465Z,37.23
2018-03-22T08:14:13.033Z,39.50
2018-03-22T08:16:40.598Z,38.30
2018-03-22T08:19:08.156Z,40.73
2018-03-22T08:21:35.748Z,38.40
2018-03-22T08:24:04.188Z,44.70
2018-03-22T08:26:31.744Z,39.90
2018-03-22T08:28:59.323Z,40.47
2018-03-22T08:31:26.879Z,38.60
2018-03-22T08:33:54.417Z,41.77
2018-03-22T08:36:22.016Z,41.57
2018-03-22T08:38:49.561Z,39.80
2018-03-22T08:41:17.189Z,40.77
2018-03-22T08:43:44.755Z,42.87
2018-03-22T08:46:13.063Z,41.77
2018-03-22T08:48:42.061Z,35.67
2018-03-22T08:51:09.630Z,35.90
2018-03-22T08:53:37.171Z,35.50
2018-03-22T08:56:04.743Z,35.60
2018-03-22T08:58:32.308Z,28.67
2018-03-22T09:00:59.863Z,30.13
2018-03-22T09:03:30.175Z,34.23
2018-03-22T09:05:57.880Z,35.40
2018-03-22T09:08:25.539Z,37.17
2018-03-22T09:10:53.180Z,39.07
2018-03-22T09:13:20.785Z,33.73
2018-03-22T09:15:48.437Z,32.80
2018-03-22T09:18:15.996Z,31.40
2018-03-22T09:20:43.645Z,30.43
2018-03-22T09:23:11.177Z,29.10
2018-03-22T09:25:38.770Z,29.67
2018-03-22T09:28:06.432Z,27.77
2018-03-22T09:30:34.087Z,25.80
2018-03-22T09:33:01.647Z,26.07
2018-03-22T09:35:29.209Z,31.53
2018-03-22T09:37:56.746Z,31.03
2018-03-22T09:40:24.343Z,32.03
2018-03-22T09:42:51.998Z,42.70
2018-03-22T09:45:19.642Z,39.13
2018-03-22T09:47:47.221Z,46.37
2018-03-22T09:50:14.882Z,29.53
2018-03-22T09:52:42.436Z,24.37
2018-03-22T09:55:09.988Z,30.43
2018-03-22T09:57:37.563Z,32.97
2018-03-22T10:00:05.111Z,26.07
2018-03-22T10:02:32.676Z,19.43
2018-03-22T10:05:00.365Z,23.93
2018-03-22T10:07:28.012Z,23.83
2018-03-22T10:09:55.563Z,26.37
2018-03-22T10:12:23.224Z,20.17
2018-03-22T10:14:50.763Z,21.97
2018-03-22T10:17:19.100Z,20.43
2018-03-22T10:19:46.671Z,21.93
2018-03-22T10:22:14.245Z,17.03
2018-03-22T10:24:42.589Z,19.63
2018-03-22T10:27:10.253Z,22.07
2018-03-22T10:29:37.817Z,18.30
2018-03-22T10:32:07.159Z,20.63
2018-03-22T10:34:36.278Z,19.97
2018-03-22T10:37:03.873Z,18.83
2018-03-22T10:39:31.439Z,17.10
2018-03-22T10:41:59.069Z,21.37
2018-03-22T10:44:27.346Z,19.63
2018-03-22T10:46:54.934Z,19.17
2018-03-22T10:49:22.494Z,22.33
2018-03-22T10:51:50.155Z,26.47
2018-03-22T10:54:17.730Z,23.70
2018-03-22T10:56:45.317Z,23.17
2018-03-22T10:59:13.629Z,22.83
2018-03-22T11:01:46.774Z,22.13
2018-03-22T11:04:15.086Z,18.90
2018-03-22T11:06:42.635Z,22.57
2018-03-22T11:09:10.962Z,18.53
2018-03-22T11:11:38.538Z,20.47
2018-03-22T11:14:06.186Z,18.60
2018-03-22T11:16:33.754Z,19.37
2018-03-22T11:19:01.419Z,17.47
2018-03-22T11:21:28.963Z,19.67
2018-03-22T11:23:56.511Z,18.80
2018-03-22T11:26:24.068Z,21.80
2018-03-22T11:28:51.631Z,19.17
2018-03-22T11:31:19.196Z,20.03
2018-03-22T11:33:46.858Z,22.83
2018-03-22T11:36:14.440Z,19.23
2018-03-22T11:38:42.011Z,21.80
2018-03-22T11:41:09.591Z,16.70
2018-03-22T11:43:37.147Z,21.67
2018-03-22T11:46:04.786Z,21.80
2018-03-22T11:48:32.355Z,21.50
2018-03-22T11:50:59.932Z,19.83
2018-03-22T11:53:27.563Z,18.37
2018-03-22T11:55:55.115Z,16.53
2018-03-22T11:58:22.693Z,19.23
2018-03-22T12:00:50.257Z,15.10
2018-03-22T12:03:17.811Z,19.73
2018-03-22T12:05:45.485Z,17.33
2018-03-22T12:08:13.066Z,19.47
2018-03-22T12:10:41.388Z,20.50
2018-03-22T12:13:08.986Z,21.00
2018-03-22T12:15:36.549Z,17.67
2018-03-22T12:18:04.105Z,20.13
2018-03-22T12:20:31.766Z,17.90
2018-03-22T12:22:59.327Z,17.27
2018-03-22T12:25:26.986Z,17.60
2018-03-22T12:27:54.637Z,16.97
2018-03-22T12:30:22.221Z,16.30
2018-03-22T12:32:49.781Z,17.70
2018-03-22T12:35:17.330Z,15.53
2018-03-22T12:37:44.893Z,12.30
2018-03-22T12:40:12.448Z,18.47
2018-03-22T12:42:40.011Z,19.67
2018-03-22T12:45:07.610Z,17.93
2018-03-22T12:47:35.948Z,16.70
2018-03-22T12:50:03.531Z,18.10
2018-03-22T12:52:31.185Z,16.60
2018-03-22T12:54:58.760Z,21.70
2018-03-22T12:57:26.311Z,17.03
2018-03-22T12:59:53.886Z,18.37
2018-03-22T13:02:21.515Z,16.83
2018-03-22T13:04:49.081Z,17.03
2018-03-22T13:07:16.666Z,18.30
2018-03-22T13:09:44.226Z,18.63
2018-03-22T13:12:13.290Z,18.00
2018-03-22T13:14:40.858Z,14.43
2018-03-22T13:17:08.433Z,20.67
2018-03-22T13:19:35.999Z,15.93
2018-03-22T13:22:03.577Z,19.83
2018-03-22T13:24:31.926Z,18.53
2018-03-22T13:27:01.160Z,16.63
2018-03-22T13:29:29.496Z,18.93
2018-03-22T13:31:57.034Z,20.07
2018-03-22T13:34:24.603Z,21.80
2018-03-22T13:36:52.180Z,18.67
2018-03-22T13:39:19.744Z,19.80
2018-03-22T13:41:47.301Z,22.07
2018-03-22T13:44:14.862Z,23.27
2018-03-22T13:46:42.418Z,22.00
2018-03-22T13:49:09.993Z,23.63
2018-03-22T13:51:37.568Z,25.53
2018-03-22T13:54:05.129Z,24.07
2018-03-22T13:56:32.681Z,23.87
2018-03-22T13:59:01.012Z,25.87
2018-03-22T14:01:28.600Z,17.27
2018-03-22T14:03:56.162Z,27.93
2018-03-22T14:06:23.808Z,23.27
2018-03-22T14:08:51.376Z,26.87
2018-03-22T14:11:18.939Z,27.67
2018-03-22T14:13:46.501Z,28.30
2018-03-22T14:16:14.054Z,27.17
2018-03-22T14:18:41.629Z,27.93
2018-03-22T14:21:09.216Z,27.53
2018-03-22T14:23:38.279Z,27.47
2018-03-22T14:26:05.826Z,17.83
2018-03-22T14:28:33.401Z,28.97
2018-03-22T14:31:00.947Z,24.53
2018-03-22T14:33:28.493Z,27.77
2018-03-22T14:35:56.083Z,35.00
2018-03-22T14:39:06.324Z,34.87
2018-03-22T14:41:33.920Z,40.30
2018-03-22T14:44:01.463Z,39.73
2018-03-22T14:46:29.124Z,41.33
2018-03-22T14:48:56.923Z,40.50
2018-03-22T14:51:25.505Z,42.90
2018-03-22T14:53:53.153Z,43.87
2018-03-22T14:56:20.806Z,53.40
2018-03-22T14:58:48.364Z,49.37
2018-03-22T15:01:15.913Z,54.80
2018-03-22T15:03:43.475Z,54.23
2018-03-22T15:06:11.047Z,59.10
2018-03-22T15:08:38.600Z,48.23
2018-03-22T15:11:06.183Z,55.47
2018-03-22T15:13:33.762Z,60.67
2018-03-22T15:16:02.086Z,49.20
2018-03-22T15:18:29.749Z,52.23
2018-03-22T15:20:57.343Z,58.13
2018-03-22T15:23:24.942Z,50.80
2018-03-22T15:25:53.294Z,48.63
2018-03-22T15:28:20.979Z,49.17
2018-03-22T15:30:48.527Z,48.53
2018-03-22T15:33:16.881Z,56.30
2018-03-22T15:35:44.456Z,56.20
2018-03-22T15:40:46.927Z,54.73
2018-03-22T15:43:14.527Z,54.27
2018-03-22T15:45:42.843Z,54.33
2018-03-22T15:48:10.444Z,56.50
2018-03-22T15:50:38.004Z,54.97
2018-03-22T15:53:05.664Z,51.90
2018-03-22T15:55:33.241Z,55.60
2018-03-22T15:58:00.794Z,53.50
2018-03-22T16:00:28.370Z,57.27
2018-03-22T16:02:56.004Z,58.47
2018-03-22T16:05:23.560Z,55.93
2018-03-22T16:07:51.116Z,66.77
2018-03-22T16:10:18.680Z,64.27
2018-03-22T16:12:46.238Z,56.80
2018-03-22T16:15:13.813Z,59.80
2018-03-22T16:17:41.550Z,50.30
2018-03-22T16:20:09.106Z,62.87
2018-03-22T16:22:36.648Z,55.77
2018-03-22T16:25:04.255Z,58.17
2018-03-22T16:27:31.809Z,61.97
2018-03-22T16:29:59.405Z,50.97
2018-03-22T16:32:27.863Z,51.77
2018-03-22T16:34:55.431Z,52.37
2018-03-22T16:37:22.987Z,48.67
2018-03-22T16:39:50.566Z,54.30
2018-03-22T16:42:18.885Z,48.80
2018-03-22T16:44:46.452Z,54.60
2018-03-22T16:47:14.148Z,50.53
2018-03-22T16:49:41.700Z,54.23
2018-03-22T16:52:09.267Z,50.87
2018-03-22T16:54:36.845Z,59.00
2018-03-22T16:57:04.499Z,50.73
2018-03-22T16:59:32.050Z,53.60
2018-03-22T17:01:59.632Z,50.27
2018-03-22T17:04:28.002Z,51.83
2018-03-22T17:06:55.648Z,43.90
2018-03-22T17:09:23.214Z,47.87
2018-03-22T17:11:50.752Z,45.10
2018-03-22T17:14:18.307Z,46.13
2018-03-22T17:16:45.891Z,47.43
2018-03-22T17:19:13.432Z,46.73
2018-03-22T17:21:40.980Z,46.37
2018-03-22T17:24:08.679Z,51.07
2018-03-22T17:26:36.226Z,51.23
2018-03-22T17:29:03.791Z,50.27
2018-03-22T17:31:31.444Z,42.80
2018-03-22T17:33:59.023Z,51.67
2018-03-22T17:36:26.581Z,45.80
2018-03-22T17:38:54.162Z,47.50
2018-03-22T17:41:21.724Z,50.03
2018-03-22T17:43:49.310Z,51.17
2018-03-22T17:46:16.888Z,56.40
2018-03-22T17:48:44.438Z,53.53
2018-03-22T17:51:12.029Z,59.27
2018-03-22T17:53:39.623Z,57.53
2018-03-22T17:56:07.169Z,57.43
2018-03-22T17:58:34.719Z,62.77
2018-03-22T18:01:02.282Z,55.10
2018-03-22T18:03:29.822Z,60.90
2018-03-22T18:05:57.377Z,56.20
2018-03-22T18:08:25.022Z,60.90
2018-03-22T18:10:52.545Z,54.93
2018-03-22T18:13:20.106Z,53.17
2018-03-22T18:15:47.678Z,58.77
2018-03-22T18:18:16.030Z,53.50
2018-03-22T18:20:43.581Z,56.53
2018-03-22T18:23:11.154Z,57.63
2018-03-22T18:25:38.703Z,56.90
2018-03-22T18:28:06.269Z,58.17
2018-03-22T18:30:33.840Z,55.47
2018-03-22T18:33:01.494Z,49.30
2018-03-22T18:35:29.063Z,50.93
2018-03-22T18:37:56.686Z,52.37
2018-03-22T18:40:24.276Z,53.77
2018-03-22T18:42:51.880Z,47.60
2018-03-22T18:45:19.459Z,55.23
2018-03-22T18:47:47.020Z,48.10
2018-03-22T18:50:14.610Z,52.17
2018-03-22T18:52:42.170Z,47.80
2018-03-22T18:55:09.737Z,59.93
2018-03-22T18:57:37.401Z,57.70
2018-03-22T19:00:05.056Z,65.03
2018-03-22T19:02:32.629Z,74.40
2018-03-22T19:05:01.694Z,65.27
2018-03-22T19:07:29.282Z,68.83
2018-03-22T19:09:56.833Z,84.97
2018-03-22T19:12:24.419Z,83.27
2018-03-22T19:14:52.047Z,90.23
2018-03-22T19:17:19.633Z,100.07
2018-03-22T19:19:47.302Z,85.50
2018-03-22T19:22:14.889Z,86.90
2018-03-22T19:24:42.505Z,105.40
2018-03-22T19:27:10.061Z,112.97
2018-03-22T19:29:37.672Z,125.87
2018-03-22T19:32:05.252Z,112.07
2018-03-22T19:34:32.818Z,116.70
2018-03-22T19:37:00.438Z,119.40
2018-03-22T19:39:28.750Z,127.77
2018-03-22T19:41:56.323Z,141.27
2018-03-22T19:44:23.903Z,135.47
2018-03-22T19:46:51.472Z,117.30
2018-03-22T19:49:19.042Z,147.47
2018-03-22T19:51:47.386Z,117.67
2018-03-22T19:54:14.935Z,132.17
2018-03-22T19:56:42.528Z,99.93
2018-03-22T19:59:10.170Z,129.37
2018-03-22T20:01:37.726Z,115.93
2018-03-22T20:04:05.423Z,118.33
2018-03-22T20:06:33.071Z,110.30
2018-03-22T20:09:00.666Z,95.23
2018-03-22T20:11:29.013Z,102.77
2018-03-22T20:13:56.570Z,79.77
2018-03-22T20:16:24.156Z,124.43
2018-03-22T20:18:52.510Z,105.87
2018-03-22T20:21:20.133Z,119.60
2018-03-22T20:23:47.689Z,134.43
2018-03-22T20:26:15.291Z,131.60
2018-03-22T20:28:42.906Z,125.73
2018-03-22T20:31:10.530Z,116.43
2018-03-22T20:33:38.081Z,131.67
2018-03-22T20:36:06.431Z,109.77
2018-03-22T20:38:33.978Z,129.30
2018-03-22T20:41:01.570Z,126.10
2018-03-22T20:43:29.173Z,144.53
2018-03-22T20:45:57.501Z,118.23
2018-03-22T20:48:25.075Z,141.37
2018-03-22T20:50:52.641Z,139.43
2018-03-22T20:53:20.374Z,153.30
2018-03-22T20:55:47.939Z,137.13
2018-03-22T20:58:15.709Z,135.37
2018-03-22T21:00:43.260Z,137.07
2018-03-22T21:03:10.857Z,127.40
2018-03-22T21:05:38.434Z,143.53
2018-03-22T21:08:06.774Z,115.93
2018-03-22T21:10:34.338Z,130.57
2018-03-22T21:13:01.902Z,115.67
2018-03-22T21:15:29.575Z,115.77
2018-03-22T21:17:57.232Z,119.33
2018-03-22T21:20:24.800Z,119.50
2018-03-22T21:22:52.374Z,141.77
2018-03-22T21:25:20.694Z,136.10
2018-03-22T21:27:48.276Z,124.30
2018-03-22T21:30:15.849Z,139.60
2018-03-22T21:32:43.419Z,101.57
2018-03-22T21:35:10.987Z,124.40
2018-03-22T21:37:38.521Z,98.07
2018-03-22T21:40:06.086Z,133.30
2018-03-22T21:42:33.668Z,86.17
2018-03-22T21:45:01.240Z,117.47
2018-03-22T21:47:31.520Z,130.40
2018-03-22T21:49:59.295Z,128.47
2018-03-22T21:52:39.112Z,136.70
2018-03-22T21:55:06.726Z,136.83
2018-03-22T21:57:34.463Z,160.00
2018-03-22T22:00:02.019Z,164.00
2018-03-22T22:02:29.691Z,194.47
2018-03-22T22:04:57.256Z,190.83
2018-03-22T22:07:24.802Z,203.43
2018-03-22T22:09:52.372Z,182.20
2018-03-22T22:12:19.932Z,226.97
2018-03-22T22:14:47.602Z,159.43
2018-03-22T22:17:15.262Z,174.07
2018-03-22T22:19:42.825Z,227.83
2018-03-22T22:22:10.483Z,201.63
2018-03-22T22:24:38.056Z,196.67
2018-03-22T22:27:05.607Z,176.87
2018-03-22T22:29:33.146Z,174.23
2018-03-22T22:32:00.811Z,173.17
2018-03-22T22:34:28.409Z,171.40
2018-03-22T22:36:55.967Z,175.23
2018-03-22T22:39:23.553Z,196.73
2018-03-22T22:41:51.865Z,126.67
2018-03-22T22:44:19.462Z,130.47
2018-03-22T22:46:47.025Z,118.40
2018-03-22T22:49:14.582Z,125.73
2018-03-22T22:51:42.131Z,98.40
2018-03-22T22:54:09.800Z,99.10
2018-03-22T22:56:37.354Z,77.70
2018-03-22T22:59:04.916Z,68.13
2018-03-22T23:01:32.590Z,59.27
2018-03-22T23:04:00.246Z,58.77
2018-03-22T23:06:27.892Z,51.77
2018-03-22T23:08:55.485Z,52.43
2018-03-22T23:11:23.035Z,47.73
2018-03-22T23:13:50.594Z,57.60
2018-03-22T23:16:18.183Z,55.97
2018-03-22T23:18:45.743Z,51.40
2018-03-22T23:21:13.303Z,54.03
2018-03-22T23:23:40.861Z,50.87
2018-03-22T23:26:08.433Z,53.53
2018-03-22T23:28:36.760Z,54.07
2018-03-22T23:31:04.340Z,66.10
2018-03-22T23:33:31.915Z,56.03
2018-03-22T23:35:59.478Z,63.37
2018-03-22T23:38:27.128Z,56.27
2018-03-22T23:40:54.670Z,45.60
2018-03-22T23:43:22.221Z,41.53
2018-03-22T23:45:49.788Z,40.10
2018-03-22T23:48:17.339Z,40.93
2018-03-22T23:50:44.878Z,42.43
2018-03-22T23:53:13.234Z,36.17
2018-03-22T23:55:40.787Z,33.73
2018-03-22T23:58:08.365Z,32.70
